createdAt,value
2019-03-19T00:01:22.150Z,3.90
2019-03-19T00:03:52.486Z,3.90
2019-03-19T00:06:22.887Z,3.80
2019-03-19T00:08:53.269Z,3.80
2019-03-19T00:11:23.643Z,3.70
2019-03-19T00:13:53.994Z,3.50
2019-03-19T00:16:24.376Z,3.60
2019-03-19T00:18:54.737Z,3.80
2019-03-19T00:21:25.114Z,3.80
2019-03-19T00:23:55.447Z,3.80
2019-03-19T00:26:25.869Z,3.80
2019-03-19T00:28:56.301Z,3.60
2019-03-19T00:31:26.681Z,3.60
2019-03-19T00:33:57.026Z,3.70
2019-03-19T00:36:27.462Z,3.60
2019-03-19T00:38:57.813Z,3.60
2019-03-19T00:41:28.152Z,3.50
2019-03-19T00:43:58.508Z,3.30
2019-03-19T00:46:28.917Z,3.10
2019-03-19T00:48:59.306Z,3.20
2019-03-19T00:51:29.650Z,3.20
2019-03-19T00:54:00.032Z,3.20
2019-03-19T00:56:30.385Z,3.30
2019-03-19T00:59:00.757Z,3.40
2019-03-19T01:01:31.185Z,3.40
2019-03-19T01:04:01.561Z,3.40
2019-03-19T01:06:32.294Z,3.60
2019-03-19T01:09:02.766Z,3.60
2019-03-19T01:11:33.164Z,3.80
2019-03-19T01:14:03.534Z,3.70
2019-03-19T01:16:33.888Z,3.60
2019-03-19T01:19:04.293Z,3.50
2019-03-19T01:21:34.646Z,3.40
2019-03-19T01:24:05.191Z,3.40
2019-03-19T01:26:35.575Z,3.30
2019-03-19T01:29:06.375Z,3.20
2019-03-19T01:31:36.796Z,3.20
2019-03-19T01:34:07.204Z,3.10
2019-03-19T01:36:37.553Z,3.20
2019-03-19T01:39:07.922Z,3.30
2019-03-19T01:41:38.285Z,3.10
2019-03-19T01:44:08.630Z,3.10
2019-03-19T01:46:38.995Z,3.10
2019-03-19T01:49:09.391Z,3.10
2019-03-19T01:51:39.750Z,3.40
2019-03-19T01:54:10.102Z,3.40
2019-03-19T01:56:40.531Z,3.40
2019-03-19T01:59:11.020Z,3.40
2019-03-19T02:01:41.389Z,3.60
2019-03-19T02:04:11.749Z,3.50
2019-03-19T02:06:42.221Z,3.20
2019-03-19T02:09:12.669Z,3.30
2019-03-19T02:11:43.032Z,3.20
2019-03-19T02:14:13.386Z,3.40
2019-03-19T02:16:43.922Z,3.30
2019-03-19T02:19:14.272Z,3.50
2019-03-19T02:21:44.711Z,3.40
2019-03-19T02:24:15.122Z,3.40
2019-03-19T02:26:45.494Z,3.40
2019-03-19T02:29:15.904Z,3.50
2019-03-19T02:31:46.358Z,3.60
2019-03-19T02:34:16.726Z,3.60
2019-03-19T02:36:47.144Z,3.50
2019-03-19T02:39:17.493Z,3.40
2019-03-19T02:41:47.857Z,3.40
2019-03-19T02:44:18.311Z,3.60
2019-03-19T02:46:48.707Z,3.50
2019-03-19T02:49:19.178Z,3.70
2019-03-19T02:51:49.592Z,3.60
2019-03-19T02:54:19.941Z,3.50
2019-03-19T02:56:50.328Z,3.50
2019-03-19T02:59:20.662Z,3.40
2019-03-19T03:01:51.039Z,3.50
2019-03-19T03:04:21.415Z,3.60
2019-03-19T03:06:51.758Z,3.50
2019-03-19T03:09:22.125Z,3.50
2019-03-19T03:11:52.509Z,3.60
2019-03-19T03:14:22.972Z,3.60
2019-03-19T03:16:53.411Z,3.60
2019-03-19T03:19:23.789Z,3.80
2019-03-19T03:21:54.167Z,3.80
2019-03-19T03:24:24.563Z,3.90
2019-03-19T03:26:54.923Z,3.70
2019-03-19T03:29:25.333Z,3.90
2019-03-19T03:31:55.698Z,3.80
2019-03-19T03:34:26.063Z,3.70
2019-03-19T03:36:56.421Z,3.80
2019-03-19T03:39:26.791Z,3.90
2019-03-19T03:41:57.187Z,4.00
2019-03-19T03:44:27.571Z,4.00
2019-03-19T03:46:57.945Z,3.70
2019-03-19T03:49:28.337Z,3.70
2019-03-19T03:51:58.806Z,3.60
2019-03-19T03:54:29.175Z,3.50
2019-03-19T03:57:02.441Z,3.60
2019-03-19T03:59:31.561Z,3.70
2019-03-19T04:02:01.930Z,3.40
2019-03-19T04:04:32.307Z,3.30
2019-03-19T04:07:02.646Z,3.40
2019-03-19T04:09:33.010Z,3.50
2019-03-19T04:12:03.389Z,3.60
2019-03-19T04:14:33.838Z,3.50
2019-03-19T04:17:04.241Z,3.70
2019-03-19T04:19:34.626Z,3.70
2019-03-19T04:22:05.503Z,3.70
2019-03-19T04:24:35.889Z,3.60
2019-03-19T04:27:16.007Z,3.60
2019-03-19T04:29:38.354Z,3.80
2019-03-19T04:32:08.714Z,3.90
2019-03-19T04:34:39.105Z,3.80
2019-03-19T04:37:09.442Z,3.80
2019-03-19T04:39:39.769Z,3.90
2019-03-19T04:42:10.147Z,3.90
2019-03-19T04:44:40.537Z,3.90
2019-03-19T04:47:10.953Z,3.70
2019-03-19T04:49:41.280Z,3.60
2019-03-19T04:52:11.657Z,3.40
2019-03-19T04:54:42.007Z,3.40
2019-03-19T04:57:12.353Z,3.50
2019-03-19T04:59:42.708Z,3.60
2019-03-19T05:02:13.051Z,3.40
2019-03-19T05:04:43.413Z,3.60
2019-03-19T05:07:13.798Z,3.90
2019-03-19T05:09:44.141Z,3.70
2019-03-19T05:12:14.492Z,3.70
2019-03-19T05:14:44.822Z,3.80
2019-03-19T05:17:15.210Z,3.80
2019-03-19T05:19:45.558Z,3.80
2019-03-19T05:22:16.243Z,3.90
2019-03-19T05:24:46.591Z,3.60
2019-03-19T05:27:16.981Z,3.80
2019-03-19T05:29:47.387Z,3.70
2019-03-19T05:32:17.753Z,3.80
2019-03-19T05:34:48.101Z,3.70
2019-03-19T05:37:18.462Z,3.90
2019-03-19T05:39:48.834Z,4.00
2019-03-19T05:42:19.214Z,3.80
2019-03-19T05:44:49.541Z,3.90
2019-03-19T05:47:19.929Z,3.70
2019-03-19T05:49:50.282Z,3.80
2019-03-19T05:52:20.637Z,3.80
2019-03-19T05:54:51.009Z,3.90
2019-03-19T05:57:21.369Z,3.80
2019-03-19T05:59:51.775Z,3.80
2019-03-19T06:02:22.154Z,3.70
2019-03-19T06:04:52.539Z,3.70
2019-03-19T06:07:22.918Z,3.80
2019-03-19T06:09:53.310Z,3.90
2019-03-19T06:12:23.662Z,4.00
2019-03-19T06:14:54.048Z,4.00
2019-03-19T06:17:24.861Z,4.10
2019-03-19T06:19:55.233Z,4.10
2019-03-19T06:22:25.577Z,4.10
2019-03-19T06:24:57.238Z,4.10
2019-03-19T06:27:27.621Z,4.30
2019-03-19T06:29:58.089Z,4.40
2019-03-19T06:32:28.441Z,4.40
2019-03-19T06:34:58.814Z,4.50
2019-03-19T06:37:29.174Z,4.70
2019-03-19T06:39:59.583Z,4.70
2019-03-19T06:42:29.911Z,4.60
2019-03-19T06:45:03.374Z,4.50
2019-03-19T06:47:33.793Z,4.40
2019-03-19T06:50:04.511Z,4.50
2019-03-19T06:52:34.878Z,4.50
2019-03-19T06:55:05.573Z,4.40
2019-03-19T06:57:39.423Z,4.20
2019-03-19T07:00:10.629Z,4.30
2019-03-19T07:02:40.985Z,4.50
2019-03-19T07:05:11.469Z,4.50
2019-03-19T07:07:41.823Z,4.60
2019-03-19T07:10:12.585Z,4.70
2019-03-19T07:12:42.955Z,4.70
2019-03-19T07:15:14.056Z,4.60
2019-03-19T07:17:44.427Z,4.90
2019-03-19T07:20:15.369Z,5.00
2019-03-19T07:22:45.762Z,5.30
2019-03-19T07:25:16.105Z,5.40
2019-03-19T07:27:46.466Z,5.60
2019-03-19T07:30:17.603Z,5.80
2019-03-19T07:32:48.003Z,5.90
2019-03-19T07:35:18.368Z,6.00
2019-03-19T07:37:48.738Z,6.00
2019-03-19T07:40:19.094Z,6.00
2019-03-19T07:42:49.473Z,6.20
2019-03-19T07:45:19.821Z,6.30
2019-03-19T07:47:50.230Z,6.30
2019-03-19T07:50:20.615Z,6.60
2019-03-19T07:52:51.003Z,6.90
2019-03-19T07:55:21.363Z,7.00
2019-03-19T07:57:51.717Z,7.20
2019-03-19T08:00:22.078Z,7.40
2019-03-19T08:02:52.454Z,7.20
2019-03-19T08:05:32.685Z,7.40
2019-03-19T08:07:54.894Z,7.70
2019-03-19T08:10:25.265Z,7.90
2019-03-19T08:12:55.613Z,7.70
2019-03-19T08:15:25.967Z,7.80
2019-03-19T08:17:56.337Z,8.10
2019-03-19T08:20:26.679Z,8.10
2019-03-19T08:22:57.049Z,8.00
2019-03-19T08:25:27.426Z,8.00
2019-03-19T08:27:57.802Z,7.90
2019-03-19T08:30:28.175Z,8.00
2019-03-19T08:32:58.597Z,8.10
2019-03-19T08:35:29.004Z,8.30
2019-03-19T08:37:59.373Z,8.50
2019-03-19T08:40:29.744Z,8.60
2019-03-19T08:43:00.126Z,8.50
2019-03-19T08:45:30.471Z,8.60
2019-03-19T08:48:00.819Z,8.80
2019-03-19T08:50:31.194Z,9.10
2019-03-19T08:53:01.563Z,8.90
2019-03-19T08:55:31.955Z,9.30
2019-03-19T08:58:02.339Z,9.60
2019-03-19T09:00:36.187Z,9.50
2019-03-19T09:03:06.620Z,9.40
2019-03-19T09:05:37.062Z,9.10
2019-03-19T09:08:07.540Z,9.20
2019-03-19T09:10:37.938Z,9.50
2019-03-19T09:13:08.342Z,9.40
2019-03-19T09:15:38.745Z,9.70
2019-03-19T09:18:09.145Z,10.00
2019-03-19T09:20:39.557Z,10.30
2019-03-19T09:23:09.927Z,10.50
2019-03-19T09:25:40.349Z,10.70
2019-03-19T09:28:10.715Z,10.50
2019-03-19T09:30:41.133Z,10.50
2019-03-19T09:33:11.525Z,10.50
2019-03-19T09:35:41.927Z,10.10
2019-03-19T09:38:12.329Z,10.10
2019-03-19T09:40:42.742Z,10.10
2019-03-19T09:43:13.121Z,9.70
2019-03-19T09:45:43.586Z,9.50
2019-03-19T09:48:13.990Z,9.50
2019-03-19T09:50:44.382Z,9.40
2019-03-19T09:53:14.764Z,9.30
2019-03-19T09:55:45.315Z,9.20
2019-03-19T09:58:15.684Z,9.20
2019-03-19T10:00:46.096Z,8.90
2019-03-19T10:03:16.528Z,8.90
2019-03-19T10:05:46.929Z,8.90
2019-03-19T10:08:17.336Z,8.70
2019-03-19T10:10:47.722Z,8.60
2019-03-19T10:13:18.149Z,8.60
2019-03-19T10:15:48.564Z,8.70
2019-03-19T10:18:18.962Z,9.00
2019-03-19T10:20:49.347Z,9.60
2019-03-19T10:23:19.729Z,10.60
2019-03-19T10:25:50.117Z,11.30
2019-03-19T10:28:20.531Z,12.20
2019-03-19T10:30:50.897Z,12.80
2019-03-19T10:33:21.296Z,13.40
2019-03-19T10:35:51.670Z,13.70
2019-03-19T10:38:22.082Z,14.20
2019-03-19T10:40:52.459Z,14.10
2019-03-19T10:43:22.856Z,13.30
2019-03-19T10:45:53.254Z,12.60
2019-03-19T10:48:23.705Z,12.20
2019-03-19T10:50:54.132Z,11.90
2019-03-19T10:53:24.547Z,11.40
2019-03-19T10:55:54.939Z,11.00
2019-03-19T10:58:25.366Z,10.70
2019-03-19T11:00:55.773Z,10.50
2019-03-19T11:03:26.214Z,10.50
2019-03-19T11:05:56.631Z,10.30
2019-03-19T11:08:27.033Z,10.30
2019-03-19T11:10:57.444Z,10.30
2019-03-19T11:13:27.707Z,10.20
2019-03-19T11:15:58.099Z,10.10
2019-03-19T11:18:28.495Z,10.30
2019-03-19T11:20:58.926Z,10.20
2019-03-19T11:23:48.350Z,10.10
2019-03-19T11:26:18.774Z,10.20
2019-03-19T11:28:49.154Z,10.30
2019-03-19T11:31:19.592Z,10.40
2019-03-19T11:33:49.937Z,10.20
2019-03-19T11:36:20.353Z,10.20
2019-03-19T11:38:50.733Z,10.30
2019-03-19T11:41:21.144Z,10.50
2019-03-19T11:43:51.548Z,10.70
2019-03-19T11:46:22.049Z,10.80
2019-03-19T11:48:52.428Z,10.80
2019-03-19T11:51:22.826Z,10.80
2019-03-19T11:53:53.205Z,10.90
2019-03-19T11:56:23.644Z,11.20
2019-03-19T11:58:54.016Z,11.30
2019-03-19T12:01:24.419Z,11.50
2019-03-19T12:03:54.832Z,11.60
2019-03-19T12:06:25.309Z,11.30
2019-03-19T12:08:55.694Z,11.30
2019-03-19T12:11:26.096Z,11.20
2019-03-19T12:13:56.474Z,11.30
2019-03-19T12:16:26.864Z,11.00
2019-03-19T12:18:57.222Z,11.10
2019-03-19T12:21:27.672Z,11.20
2019-03-19T12:23:58.048Z,11.10
2019-03-19T12:26:28.537Z,11.10
2019-03-19T12:28:58.902Z,10.90
2019-03-19T12:31:30.366Z,10.90
2019-03-19T12:34:00.746Z,11.00
2019-03-19T12:36:31.142Z,11.20
2019-03-19T12:39:01.537Z,11.30
2019-03-19T12:41:31.937Z,11.50
2019-03-19T12:44:02.335Z,11.60
2019-03-19T12:46:32.730Z,11.70
2019-03-19T12:49:03.137Z,11.40
2019-03-19T12:51:33.505Z,11.40
2019-03-19T12:54:03.918Z,11.60
2019-03-19T12:56:34.297Z,11.80
2019-03-19T12:59:04.726Z,12.10
2019-03-19T13:01:35.203Z,12.20
2019-03-19T13:04:05.822Z,12.20
2019-03-19T13:06:36.269Z,12.10
2019-03-19T13:09:08.186Z,12.20
2019-03-19T13:11:38.587Z,12.30
2019-03-19T13:14:09.032Z,12.30
2019-03-19T13:16:39.394Z,12.30
2019-03-19T13:19:09.785Z,12.20
2019-03-19T13:21:40.163Z,12.10
2019-03-19T13:24:10.573Z,11.90
2019-03-19T13:26:40.969Z,11.80
2019-03-19T13:29:11.373Z,11.80
2019-03-19T13:31:41.773Z,11.70
2019-03-19T13:34:12.187Z,11.60
2019-03-19T13:36:42.557Z,11.40
2019-03-19T13:39:12.962Z,11.30
2019-03-19T13:41:43.345Z,11.30
2019-03-19T13:44:13.780Z,11.20
2019-03-19T13:46:44.164Z,11.30
2019-03-19T13:49:14.567Z,11.30
2019-03-19T13:51:44.977Z,11.30
2019-03-19T13:54:16.730Z,11.30
2019-03-19T13:56:47.449Z,11.40
2019-03-19T13:59:17.842Z,11.40
2019-03-19T14:01:48.234Z,11.60
2019-03-19T14:04:21.054Z,11.60
2019-03-19T14:06:50.778Z,11.50
2019-03-19T14:09:21.155Z,11.60
2019-03-19T14:11:51.560Z,11.70
2019-03-19T14:14:21.978Z,11.60
2019-03-19T14:16:52.433Z,11.60
2019-03-19T14:19:22.833Z,11.50
2019-03-19T14:21:53.280Z,11.40
2019-03-19T14:24:23.651Z,11.40
2019-03-19T14:26:54.064Z,11.30
2019-03-19T14:29:24.482Z,11.20
2019-03-19T14:31:54.921Z,11.20
2019-03-19T14:34:25.318Z,11.00
2019-03-19T14:36:55.720Z,10.90
2019-03-19T14:39:26.094Z,11.10
2019-03-19T14:41:56.487Z,11.30
2019-03-19T14:44:26.887Z,11.60
2019-03-19T14:46:57.304Z,11.70
2019-03-19T14:49:27.691Z,11.90
2019-03-19T14:51:58.125Z,12.10
2019-03-19T14:54:28.539Z,12.20
2019-03-19T14:57:02.134Z,12.10
2019-03-19T14:59:32.486Z,12.20
2019-03-19T15:02:02.881Z,12.30
2019-03-19T15:04:33.254Z,12.40
2019-03-19T15:07:03.633Z,12.50
2019-03-19T15:09:33.993Z,12.60
2019-03-19T15:12:04.505Z,12.60
2019-03-19T15:14:34.925Z,12.60
2019-03-19T15:17:05.461Z,12.60
2019-03-19T15:19:35.878Z,12.50
2019-03-19T15:22:06.258Z,12.60
2019-03-19T15:24:36.633Z,12.60
2019-03-19T15:27:07.003Z,12.50
2019-03-19T15:29:37.406Z,12.70
2019-03-19T15:32:07.786Z,12.80
2019-03-19T15:34:38.169Z,12.70
2019-03-19T15:37:08.614Z,12.60
2019-03-19T15:39:39.002Z,12.30
2019-03-19T15:42:09.386Z,12.20
2019-03-19T15:44:39.777Z,12.10
2019-03-19T15:47:10.209Z,12.20
2019-03-19T15:49:40.595Z,12.10
2019-03-19T15:52:10.983Z,12.30
2019-03-19T15:54:41.474Z,12.00
2019-03-19T15:57:11.877Z,12.10
2019-03-19T15:59:43.357Z,12.00
2019-03-19T16:02:13.737Z,11.90
2019-03-19T16:04:44.139Z,11.90
2019-03-19T16:07:14.532Z,12.00
2019-03-19T16:09:44.907Z,12.00
2019-03-19T16:12:15.265Z,11.90
2019-03-19T16:14:45.666Z,11.60
2019-03-19T16:17:16.047Z,11.60
2019-03-19T16:19:46.474Z,11.60
2019-03-19T16:22:16.856Z,11.60
2019-03-19T16:24:47.226Z,11.60
2019-03-19T16:27:17.645Z,11.50
2019-03-19T16:29:48.027Z,11.40
2019-03-19T16:32:18.434Z,11.30
2019-03-19T16:34:48.794Z,11.10
2019-03-19T16:37:19.221Z,11.10
2019-03-19T16:39:49.560Z,11.00
2019-03-19T16:42:19.954Z,10.90
2019-03-19T16:44:50.343Z,10.70
2019-03-19T16:47:20.763Z,10.70
2019-03-19T16:49:51.133Z,10.70
2019-03-19T16:52:21.537Z,10.60
2019-03-19T16:54:51.901Z,10.50
2019-03-19T16:57:22.329Z,10.60
2019-03-19T16:59:52.714Z,10.50
2019-03-19T17:02:23.122Z,10.50
2019-03-19T17:04:53.545Z,10.50
2019-03-19T17:07:23.953Z,10.40
2019-03-19T17:09:54.423Z,10.40
2019-03-19T17:12:24.838Z,10.30
2019-03-19T17:14:55.308Z,10.20
2019-03-19T17:17:25.730Z,10.20
2019-03-19T17:19:57.689Z,10.10
2019-03-19T17:22:28.077Z,9.90
2019-03-19T17:24:58.432Z,9.70
2019-03-19T17:27:28.813Z,9.80
2019-03-19T17:29:59.252Z,9.70
2019-03-19T17:32:29.679Z,9.60
2019-03-19T17:35:00.049Z,9.50
2019-03-19T17:37:30.461Z,9.50
2019-03-19T17:40:00.865Z,9.40
2019-03-19T17:42:31.257Z,9.20
2019-03-19T17:45:01.650Z,9.10
2019-03-19T17:47:32.025Z,9.10
2019-03-19T17:50:02.396Z,9.00
2019-03-19T17:52:32.791Z,8.90
2019-03-19T17:55:03.241Z,8.90
2019-03-19T17:57:33.594Z,8.80
2019-03-19T18:00:04.476Z,8.80
2019-03-19T18:02:35.467Z,8.70
2019-03-19T18:05:06.450Z,8.70
2019-03-19T18:07:36.832Z,8.60
2019-03-19T18:10:07.706Z,8.50
2019-03-19T18:12:38.090Z,8.40
2019-03-19T18:15:08.938Z,8.40
2019-03-19T18:17:39.306Z,8.40
2019-03-19T18:20:09.785Z,8.30
2019-03-19T18:22:40.216Z,8.30
2019-03-19T18:25:10.918Z,8.00
2019-03-19T18:27:41.447Z,8.00
2019-03-19T18:30:13.488Z,7.80
2019-03-19T18:32:43.970Z,7.80
2019-03-19T18:35:14.514Z,7.80
2019-03-19T18:37:44.966Z,7.70
2019-03-19T18:40:15.504Z,7.70
2019-03-19T18:42:45.889Z,7.60
2019-03-19T18:45:16.379Z,7.60
2019-03-19T18:47:46.933Z,7.40
2019-03-19T18:50:17.416Z,7.40
2019-03-19T18:52:47.854Z,7.30
2019-03-19T18:55:18.370Z,7.30
2019-03-19T18:57:48.861Z,7.40
2019-03-19T19:00:19.234Z,7.30
2019-03-19T19:02:51.075Z,7.30
2019-03-19T19:05:21.792Z,7.30
2019-03-19T19:07:52.176Z,7.00
2019-03-19T19:10:22.762Z,6.70
2019-03-19T19:12:53.187Z,6.60
2019-03-19T19:15:23.586Z,6.50
2019-03-19T19:17:53.975Z,6.50
2019-03-19T19:20:24.384Z,6.50
2019-03-19T19:22:54.802Z,6.60
2019-03-19T19:25:25.197Z,6.80
2019-03-19T19:27:55.598Z,6.60
2019-03-19T19:30:25.993Z,6.40
2019-03-19T19:33:02.140Z,6.40
2019-03-19T19:35:28.594Z,6.20
2019-03-19T19:37:59.019Z,6.20
2019-03-19T19:40:29.432Z,6.20
2019-03-19T19:42:59.833Z,6.10
2019-03-19T19:45:30.276Z,5.90
2019-03-19T19:48:00.717Z,6.00
2019-03-19T19:50:31.099Z,6.10
2019-03-19T19:53:01.520Z,6.00
2019-03-19T19:55:31.889Z,6.00
2019-03-19T19:58:02.302Z,5.90
2019-03-19T20:00:32.710Z,5.80
2019-03-19T20:03:11.719Z,5.80
2019-03-19T20:05:35.166Z,5.60
2019-03-19T20:08:05.597Z,5.60
2019-03-19T20:10:36.030Z,5.80
2019-03-19T20:13:06.402Z,5.70
2019-03-19T20:15:36.802Z,5.90
2019-03-19T20:18:07.480Z,5.90
2019-03-19T20:20:37.882Z,5.90
2019-03-19T20:23:08.285Z,5.90
2019-03-19T20:25:38.728Z,5.90
2019-03-19T20:28:09.114Z,5.90
2019-03-19T20:30:39.566Z,5.70
2019-03-19T20:33:10.002Z,5.60
2019-03-19T20:35:41.437Z,5.30
2019-03-19T20:38:11.893Z,5.30
2019-03-19T20:40:42.290Z,5.30
2019-03-19T20:43:12.676Z,5.10
2019-03-19T20:45:43.097Z,5.20
2019-03-19T20:48:13.472Z,5.30
2019-03-19T20:50:43.907Z,5.50
2019-03-19T20:53:14.276Z,5.40
2019-03-19T20:55:44.687Z,5.30
2019-03-19T20:58:15.111Z,5.30
2019-03-19T21:00:45.605Z,5.40
2019-03-19T21:03:16.008Z,5.20
2019-03-19T21:05:46.422Z,5.10
2019-03-19T21:08:16.813Z,4.90
2019-03-19T21:10:47.263Z,5.10
2019-03-19T21:13:17.643Z,5.20
2019-03-19T21:15:48.055Z,5.00
2019-03-19T21:18:18.498Z,4.90
2019-03-19T21:20:48.880Z,4.90
2019-03-19T21:23:19.298Z,4.80
2019-03-19T21:25:49.676Z,4.80
2019-03-19T21:28:20.071Z,4.90
2019-03-19T21:30:50.445Z,4.90
2019-03-19T21:33:20.891Z,4.80
2019-03-19T21:35:51.507Z,4.90
2019-03-19T21:38:21.940Z,5.00
2019-03-19T21:40:52.317Z,4.70
2019-03-19T21:43:22.743Z,4.60
2019-03-19T21:45:53.232Z,4.60
2019-03-19T21:48:23.625Z,4.50
2019-03-19T21:50:54.021Z,4.60
2019-03-19T21:53:24.434Z,4.30
2019-03-19T21:55:54.845Z,4.40
2019-03-19T21:58:25.322Z,4.50
2019-03-19T22:00:55.897Z,4.40
2019-03-19T22:03:26.290Z,4.10
2019-03-19T22:05:56.666Z,4.10
2019-03-19T22:08:27.919Z,4.10
2019-03-19T22:10:58.344Z,4.00
2019-03-19T22:13:28.750Z,3.90
2019-03-19T22:15:59.144Z,3.80
2019-03-19T22:18:29.494Z,3.60
2019-03-19T22:20:59.882Z,3.60
2019-03-19T22:23:30.287Z,3.80
2019-03-19T22:26:00.774Z,3.90
2019-03-19T22:28:31.188Z,3.80
2019-03-19T22:31:01.581Z,3.60
2019-03-19T22:33:33.586Z,3.50
2019-03-19T22:36:04.082Z,3.30
2019-03-19T22:38:34.497Z,3.30
2019-03-19T22:41:04.917Z,3.50
2019-03-19T22:43:35.317Z,3.70
2019-03-19T22:46:05.869Z,3.70
2019-03-19T22:48:36.281Z,3.40
2019-03-19T22:51:06.690Z,3.60
2019-03-19T22:53:37.082Z,3.50
2019-03-19T22:56:07.518Z,3.80
2019-03-19T22:58:37.871Z,3.80
2019-03-19T23:01:08.296Z,3.90
2019-03-19T23:03:38.675Z,3.60
2019-03-19T23:06:09.058Z,3.60
2019-03-19T23:08:39.446Z,3.70
2019-03-19T23:11:12.875Z,3.70
2019-03-19T23:13:43.307Z,3.60
2019-03-19T23:16:13.767Z,3.40
2019-03-19T23:18:44.237Z,3.20
2019-03-19T23:21:14.626Z,3.10
2019-03-19T23:23:44.982Z,3.20
2019-03-19T23:26:15.498Z,3.30
2019-03-19T23:28:45.885Z,3.30
2019-03-19T23:31:16.260Z,3.20
2019-03-19T23:33:46.675Z,3.30
2019-03-19T23:36:17.069Z,3.30
2019-03-19T23:38:47.445Z,3.20
2019-03-19T23:41:20.276Z,3.30
2019-03-19T23:43:50.024Z,3.40
2019-03-19T23:46:20.392Z,3.40
2019-03-19T23:48:50.757Z,3.20
2019-03-19T23:51:21.106Z,3.10
2019-03-19T23:53:52.669Z,3.40
2019-03-19T23:56:23.094Z,3.20
2019-03-19T23:58:53.470Z,3.10
